Time;durP1;ratioP1;P1;durP2;ratioP2;P2;SDS_P1;SDS_P2;PMS_P1;PMS_P2;Temp;Humidity;BMP_temperature;BMP_pressure;BME280_temperature;BME280_humidity;BME280_pressure;Samples;Min_cycle;Max_cycle;Signal;HPM_P1;HPM_P2
2022/01/22 00:00:25;;;;;;;;;29.25;24.00;;;;;11.21;57.56;103391.78;5099693;27;62021;-79
2022/01/22 00:02:51;;;;;;;;;28.75;23.25;;;;;11.22;57.31;103390.97;5084567;27;61861;-80
2022/01/22 00:05:19;;;;;;;;;37.75;28.00;;;;;11.25;56.96;103386.00;5083466;28;62804;-79
2022/01/22 00:07:45;;;;;;;;;28.25;22.75;;;;;11.21;57.01;103384.81;5083830;27;61886;-79
2022/01/22 00:10:17;;;;;;;;;23.00;19.75;;;;;11.10;57.11;103379.41;5099367;27;62001;-79
2022/01/22 00:13:06;;;;;;;;;25.75;22.75;;;;;11.15;57.32;103370.22;5084156;27;61915;-79
2022/01/22 00:15:33;;;;;;;;;29.75;21.50;;;;;11.20;57.30;103369.84;5082798;27;61952;-79
2022/01/22 00:17:58;;;;;;;;;25.75;22.50;;;;;11.23;57.16;103374.41;5082617;28;61912;-80
2022/01/22 00:20:28;;;;;;;;;23.75;21.25;;;;;11.23;57.26;103379.69;5084018;28;61979;-80
2022/01/22 00:22:54;;;;;;;;;22.25;22.25;;;;;11.21;57.20;103378.63;5084247;27;61990;-79
2022/01/22 00:25:23;;;;;;;;;24.00;21.75;;;;;11.16;57.60;103380.88;5081991;28;62714;-79
2022/01/22 00:27:50;;;;;;;;;23.25;20.25;;;;;11.15;57.35;103373.78;5083583;27;62092;-80
2022/01/22 00:30:21;;;;;;;;;17.25;15.75;;;;;11.10;57.64;103366.28;5083494;28;61967;-80
2022/01/22 00:32:47;;;;;;;;;25.25;21.25;;;;;11.13;57.41;103375.34;5083681;28;61800;-79
2022/01/22 00:35:13;;;;;;;;;22.00;21.50;;;;;11.14;57.60;103363.13;5083352;28;61740;-80
2022/01/22 00:37:43;;;;;;;;;21.00;19.00;;;;;11.15;57.75;103354.47;5069654;28;61749;-79
2022/01/22 00:40:10;;;;;;;;;25.50;22.00;;;;;11.13;57.64;103361.28;5083479;27;62079;-79
2022/01/22 00:42:39;;;;;;;;;25.25;19.75;;;;;11.13;57.77;103356.94;5083412;28;61953;-79
2022/01/22 00:45:05;;;;;;;;;29.00;22.50;;;;;11.14;57.81;103363.13;5098137;27;64820;-79
2022/01/22 00:47:31;;;;;;;;;23.00;20.75;;;;;11.13;57.74;103361.28;5083535;27;61819;-79
2022/01/22 00:49:56;;;;;;;;;30.00;24.75;;;;;11.15;57.69;103371.13;5082162;28;61857;-79
2022/01/22 00:52:22;;;;;;;;;18.75;16.25;;;;;11.16;57.71;103361.53;5082346;28;62088;-79
2022/01/22 00:54:47;;;;;;;;;24.25;20.25;;;;;11.25;57.99;103354.44;5082330;28;61846;-79
2022/01/22 00:57:13;;;;;;;;;22.50;18.25;;;;;11.30;57.63;103360.06;5082889;28;61862;-79
2022/01/22 00:59:39;;;;;;;;;22.00;17.75;;;;;11.22;57.39;103364.69;5081437;28;62055;-79
2022/01/22 01:02:04;;;;;;;;;25.00;22.00;;;;;11.18;57.57;103363.53;5083395;28;61930;-80
2022/01/22 01:04:33;;;;;;;;;21.25;19.50;;;;;11.11;57.59;103366.41;5082328;28;62807;-79
2022/01/22 01:06:59;;;;;;;;;20.25;19.00;;;;;11.15;57.30;103368.50;5083026;28;61992;-79
2022/01/22 01:09:24;;;;;;;;;22.50;22.25;;;;;11.15;57.55;103367.59;5083198;28;61767;-80
2022/01/22 01:11:55;;;;;;;;;26.25;26.00;;;;;11.18;57.27;103371.41;5098439;27;62086;-79
2022/01/22 01:14:28;;;;;;;;;22.75;19.25;;;;;11.15;57.38;103367.59;5082451;28;61928;-79
2022/01/22 01:35:38;;;;;;;;;24.50;19.75;;;;;11.34;57.29;103346.38;5080868;28;62632;-79
2022/01/22 01:38:04;;;;;;;;;18.75;16.50;;;;;11.28;57.24;103343.25;5071225;28;61763;-79
2022/01/22 01:40:31;;;;;;;;;12.75;12.75;;;;;11.25;57.12;103338.66;5082638;28;61703;-79
2022/01/22 01:45:25;;;;;;;;;20.50;18.00;;;;;11.26;57.05;103337.84;5082089;27;61889;-79
2022/01/22 01:47:56;;;;;;;;;22.75;19.50;;;;;11.18;56.97;103339.88;5082461;28;61873;-80
2022/01/22 01:50:22;;;;;;;;;22.25;20.75;;;;;11.12;57.09;103347.25;5082515;27;62414;-79
2022/01/22 01:53:01;;;;;;;;;23.00;19.50;;;;;11.19;57.16;103343.41;5098689;27;62599;-79
2022/01/22 01:55:35;;;;;;;;;25.25;20.25;;;;;11.17;57.38;103347.63;5080113;28;64848;-79
2022/01/22 01:58:01;;;;;;;;;23.50;23.25;;;;;11.22;57.13;103347.19;5081938;28;62902;-79
2022/01/22 02:00:27;;;;;;;;;21.25;15.50;;;;;11.20;57.40;103347.84;5081161;28;62262;-79
2022/01/22 02:02:53;;;;;;;;;19.50;19.50;;;;;11.25;57.50;103354.44;5081369;28;62172;-79
2022/01/22 02:05:22;;;;;;;;;24.25;21.75;;;;;11.31;57.13;103352.31;5082002;28;62757;-79
2022/01/22 02:07:48;;;;;;;;;20.50;18.25;;;;;11.29;56.93;103356.53;5082329;28;61909;-79
2022/01/22 02:10:23;;;;;;;;;28.25;22.75;;;;;11.23;57.09;103353.38;5097672;27;62158;-79
2022/01/22 02:23:37;;;;;;;;;25.25;22.75;;;;;11.21;57.68;103337.47;5082135;28;62180;-79
2022/01/22 02:26:05;;;;;;;;;26.25;22.50;;;;;11.36;57.57;103344.81;5080157;28;61679;-79
2022/01/22 02:28:32;;;;;;;;;20.25;18.50;;;;;11.41;57.44;103343.47;5097784;27;61957;-79
2022/01/22 02:31:10;;;;;;;;;23.75;20.25;;;;;11.34;57.28;103344.66;5097701;27;62077;-79
2022/01/22 02:36:19;;;;;;;;;21.75;19.00;;;;;11.38;57.86;103343.22;5081256;28;62480;-79
2022/01/22 02:38:52;;;;;;;;;18.75;17.75;;;;;11.40;57.50;103345.19;5085379;27;61805;-79
2022/01/22 02:41:21;;;;;;;;;27.25;20.00;;;;;11.36;57.28;103348.34;5084158;28;62176;-79
2022/01/22 02:43:47;;;;;;;;;23.25;22.00;;;;;11.33;57.50;103344.53;5085717;28;61736;-79
2022/01/22 02:46:18;;;;;;;;;24.00;20.50;;;;;11.29;57.35;103340.75;5084954;28;63002;-79
2022/01/22 02:48:44;;;;;;;;;19.50;18.25;;;;;11.20;57.58;103339.97;5083956;28;61867;-79
2022/01/22 02:51:10;;;;;;;;;23.50;17.75;;;;;11.15;57.53;103338.69;5084025;28;61854;-79
2022/01/22 02:53:35;;;;;;;;;27.25;22.25;;;;;11.18;57.95;103325.78;5101453;27;62516;-79
2022/01/22 02:56:01;;;;;;;;;26.00;17.75;;;;;11.24;58.12;103318.41;5083605;28;62054;-79
2022/01/22 02:58:27;;;;;;;;;26.75;19.75;;;;;11.33;57.81;103329.66;5100671;27;61731;-79
2022/01/22 03:00:52;;;;;;;;;26.25;25.25;;;;;11.31;57.55;103328.66;5085309;28;61998;-79
2022/01/22 03:03:18;;;;;;;;;24.00;19.00;;;;;11.30;57.98;103318.91;5085185;27;61961;-79
2022/01/22 03:05:43;;;;;;;;;21.00;20.25;;;;;11.29;57.95;103324.97;5084893;28;61846;-79
2022/01/22 03:08:10;;;;;;;;;23.00;18.50;;;;;11.33;57.95;103318.25;5085190;28;62600;-79
2022/01/22 03:10:38;;;;;;;;;19.00;16.25;;;;;11.25;57.51;103317.63;5084378;27;61875;-79
2022/01/22 03:15:50;;;;;;;;;21.00;18.75;;;;;11.25;57.77;103325.50;5084353;28;61928;-79
2022/01/22 03:18:22;;;;;;;;;19.25;15.00;;;;;11.26;57.88;103328.25;5100494;27;62298;-79
2022/01/22 03:29:08;;;;;;;;;17.50;16.25;;;;;11.17;58.50;103334.47;5084550;28;61827;-79
2022/01/22 03:31:34;;;;;;;;;22.50;21.00;;;;;11.23;58.20;103335.91;5100000;27;62109;-79
2022/01/22 03:34:00;;;;;;;;;18.50;16.50;;;;;11.24;58.09;103321.94;5100789;27;61923;-79
2022/01/22 03:36:29;;;;;;;;;20.00;17.75;;;;;11.29;58.39;103324.03;5083552;28;62772;-79
2022/01/22 03:38:55;;;;;;;;;23.25;19.50;;;;;11.28;58.36;103322.22;5084248;28;61772;-79
2022/01/22 03:41:23;;;;;;;;;24.50;20.50;;;;;11.36;57.93;103329.03;5084181;28;61887;-79
2022/01/22 03:43:49;;;;;;;;;23.25;19.00;;;;;11.30;57.91;103324.16;5083283;27;61840;-79
2022/01/22 03:46:15;;;;;;;;;14.00;13.75;;;;;11.35;58.13;103329.81;5082793;28;61771;-79
2022/01/22 03:48:40;;;;;;;;;15.75;14.50;;;;;11.38;58.06;103337.97;5084395;28;61716;-79
2022/01/22 03:51:06;;;;;;;;;25.00;22.50;;;;;11.40;58.06;103333.75;5084323;28;62038;-79
2022/01/22 03:53:31;;;;;;;;;20.50;15.75;;;;;11.39;58.16;103334.53;5082872;28;62149;-79
2022/01/22 03:56:04;;;;;;;;;20.00;17.25;;;;;11.43;58.47;103328.72;5081812;28;63583;-79
2022/01/22 03:58:35;;;;;;;;;18.50;14.50;;;;;11.49;58.18;103326.59;5084033;28;61804;-79
2022/01/22 04:03:54;;;;;;;;;19.25;16.25;;;;;11.60;58.00;103338.91;5084330;28;61855;-79
2022/01/22 04:09:09;;;;;;;;;19.25;15.50;;;;;11.60;57.72;103338.91;5084241;28;62044;-79
2022/01/22 04:11:38;;;;;;;;;14.00;14.00;;;;;11.57;58.01;103335.13;5082204;28;61994;-79
2022/01/22 04:14:06;;;;;;;;;19.75;16.50;;;;;11.60;58.00;103323.13;5084314;28;61885;-79
2022/01/22 04:16:32;;;;;;;;;22.00;15.00;;;;;11.55;58.13;103324.47;5083517;28;61937;-79
2022/01/22 04:27:13;;;;;;;;;17.50;15.75;;;;;11.53;58.02;103314.63;5082992;28;62193;-79
2022/01/22 04:29:39;;;;;;;;;23.75;17.00;;;;;11.54;58.17;103314.72;5083665;28;61666;-79
2022/01/22 04:32:05;;;;;;;;;21.00;14.75;;;;;11.60;58.24;103324.84;5082369;28;61913;-79
2022/01/22 04:34:31;;;;;;;;;13.50;13.50;;;;;11.61;58.07;103324.97;5082673;28;62299;-79
2022/01/22 04:36:57;;;;;;;;;16.50;15.75;;;;;11.64;58.36;103324.28;5074211;28;63515;-79
2022/01/22 04:39:25;;;;;;;;;19.50;16.25;;;;;11.65;58.21;103326.13;5099322;27;61797;-79
2022/01/22 04:41:53;;;;;;;;;15.25;12.00;;;;;11.59;58.48;103329.19;5081814;28;62367;-79
2022/01/22 04:44:18;;;;;;;;;17.75;15.25;;;;;11.57;58.49;103315.00;5084043;28;61960;-79
2022/01/22 04:52:34;;;;;;;;;16.50;12.75;;;;;11.57;58.48;103317.63;5083452;28;61862;-79
2022/01/22 04:55:01;;;;;;;;;15.00;15.00;;;;;11.57;58.73;103325.53;5083368;28;61955;-79
2022/01/22 04:57:32;;;;;;;;;19.75;15.00;;;;;11.65;58.56;103329.69;5097951;27;63856;-79
2022/01/22 04:59:57;;;;;;;;;16.25;16.00;;;;;11.58;58.67;103318.53;5083040;27;61707;-79
2022/01/22 05:02:23;;;;;;;;;21.25;16.00;;;;;11.63;58.69;103328.66;5083008;28;62046;-80
2022/01/22 05:04:49;;;;;;;;;17.50;16.00;;;;;11.65;58.75;103327.06;5081107;28;61890;-79
2022/01/22 05:07:14;;;;;;;;;20.50;16.75;;;;;11.69;58.72;103327.28;5081448;28;64936;-79
2022/01/22 05:09:40;;;;;;;;;20.25;13.75;;;;;11.70;58.56;103329.13;5082674;28;61776;-79
2022/01/22 05:12:07;;;;;;;;;11.00;11.00;;;;;11.64;58.62;103326.94;5098343;27;61818;-79
2022/01/22 05:14:33;;;;;;;;;18.00;11.00;;;;;11.62;58.64;103333.78;5082084;28;62168;-79
2022/01/22 05:17:01;;;;;;;;;18.50;16.25;;;;;11.64;58.55;103321.66;5082137;28;62082;-79
2022/01/22 05:19:48;;;;;;;;;18.25;14.75;;;;;11.57;58.66;103316.72;5082573;28;61958;-79
2022/01/22 05:24:46;;;;;;;;;18.75;15.75;;;;;11.62;58.78;103323.25;5083069;28;61961;-79
2022/01/22 05:27:31;;;;;;;;;19.50;17.75;;;;;11.64;59.17;103325.22;5081414;28;62637;-79
2022/01/22 05:37:32;;;;;;;;;23.50;20.25;;;;;11.68;58.78;103325.47;5081900;28;61783;-79
2022/01/22 05:39:58;;;;;;;;;21.50;16.00;;;;;11.76;58.80;103343.72;5080983;28;61766;-79
2022/01/22 05:42:23;;;;;;;;;13.75;11.00;;;;;11.82;58.36;103332.75;5081484;28;61919;-79
2022/01/22 05:44:48;;;;;;;;;22.25;15.00;;;;;11.78;58.20;103328.03;5082600;28;61753;-79
2022/01/22 05:47:20;;;;;;;;;23.25;20.50;;;;;11.79;57.83;103329.88;5081873;28;61980;-79
2022/01/22 05:49:46;;;;;;;;;21.00;18.00;;;;;11.77;57.94;103329.75;5082420;28;61926;-79
2022/01/22 05:52:14;;;;;;;;;29.75;23.25;;;;;11.83;58.05;103337.22;5098200;27;61779;-79
2022/01/22 05:59:58;;;;;;;;;31.25;21.00;;;;;11.82;58.23;103324.84;5082317;28;61854;-79
2022/01/22 06:02:23;;;;;;;;;25.50;17.25;;;;;11.80;57.66;103342.22;5098168;27;61951;-79
2022/01/22 06:04:49;;;;;;;;;25.25;18.50;;;;;11.81;57.83;103341.44;5082178;28;61731;-79
2022/01/22 06:07:14;;;;;;;;;27.25;20.75;;;;;11.78;57.79;103343.81;5079733;27;61841;-79
2022/01/22 06:09:53;;;;;;;;;24.25;18.00;;;;;11.82;57.58;103345.91;5080817;28;61812;-79
2022/01/22 06:12:35;;;;;;;;;20.50;19.25;;;;;11.81;57.72;103344.09;5082261;27;61737;-79
2022/01/22 06:15:00;;;;;;;;;29.50;22.75;;;;;11.89;57.27;103352.59;5084880;27;62158;-79
2022/01/22 06:17:26;;;;;;;;;23.25;20.00;;;;;11.95;57.84;103353.09;5084903;28;61850;-79
2022/01/22 06:19:51;;;;;;;;;21.50;17.50;;;;;11.97;57.75;103349.78;5101724;27;62133;-79
2022/01/22 06:22:16;;;;;;;;;33.25;20.75;;;;;12.01;57.51;103348.34;5101580;27;62117;-79
2022/01/22 06:24:42;;;;;;;;;25.00;21.00;;;;;12.02;57.43;103348.47;5085793;28;62094;-79
2022/01/22 06:27:07;;;;;;;;;26.50;18.75;;;;;12.05;57.92;103353.06;5084294;28;62966;-79
2022/01/22 06:29:33;;;;;;;;;28.50;22.50;;;;;12.07;57.53;103351.47;5085651;28;61915;-79
2022/01/22 06:31:58;;;;;;;;;27.25;22.50;;;;;12.09;57.47;103354.22;5084208;28;61848;-79
2022/01/22 06:34:24;;;;;;;;;38.75;31.50;;;;;12.00;57.24;103343.88;5085931;28;61991;-79
2022/01/22 06:36:49;;;;;;;;;29.75;26.75;;;;;11.96;57.24;103347.97;5085171;27;63273;-79
2022/01/22 06:39:17;;;;;;;;;25.50;23.75;;;;;11.92;57.71;103345.88;5085575;28;61866;-79
2022/01/22 06:41:45;;;;;;;;;31.25;24.50;;;;;11.99;57.80;103355.19;5085506;27;62191;-79
2022/01/22 06:44:22;;;;;;;;;31.25;27.50;;;;;11.97;57.83;103351.50;5101538;27;62292;-79
2022/01/22 06:46:53;;;;;;;;;28.00;22.00;;;;;11.97;57.60;103356.78;5084575;27;61901;-79
2022/01/22 06:49:19;;;;;;;;;26.25;25.25;;;;;11.94;57.38;103357.47;5085344;27;61811;-79
2022/01/22 06:51:45;;;;;;;;;24.25;21.50;;;;;11.83;57.54;103358.28;5085584;28;61862;-79
2022/01/22 06:54:12;;;;;;;;;29.75;24.50;;;;;11.86;57.38;103353.25;5085668;28;61650;-79
2022/01/22 06:56:38;;;;;;;;;29.25;25.75;;;;;11.83;57.15;103351.31;5082992;28;64659;-79
2022/01/22 06:59:06;;;;;;;;;26.25;24.00;;;;;11.80;57.49;103358.97;5083963;28;61982;-79
2022/01/22 07:01:32;;;;;;;;;25.75;21.00;;;;;11.82;57.56;103361.69;5085092;27;61734;-79
2022/01/22 07:03:58;;;;;;;;;29.75;24.75;;;;;11.87;57.75;103355.09;5085417;28;61953;-79
2022/01/22 07:06:24;;;;;;;;;28.75;25.25;;;;;11.87;57.71;103357.75;5084786;27;62114;-79
2022/01/22 07:08:49;;;;;;;;;31.00;23.75;;;;;11.84;57.70;103352.22;5085276;28;61765;-79
2022/01/22 07:11:15;;;;;;;;;31.00;24.75;;;;;11.89;57.56;103357.88;5100548;27;62289;-79
2022/01/22 07:13:41;;;;;;;;;34.00;24.25;;;;;11.93;57.59;103358.22;5085137;28;61825;-79
2022/01/22 07:16:07;;;;;;;;;31.00;22.75;;;;;12.00;57.84;103363.22;5084075;28;62602;-79
2022/01/22 07:18:33;;;;;;;;;29.00;26.00;;;;;12.03;57.25;103355.56;5084918;28;61801;-79
2022/01/22 07:21:02;;;;;;;;;34.75;22.50;;;;;12.03;57.35;103360.81;5085203;28;62041;-80
2022/01/22 07:25:56;;;;;;;;;33.25;23.75;;;;;12.02;57.54;103359.00;5083353;28;62391;-79
2022/01/22 07:28:22;;;;;;;;;31.75;27.50;;;;;11.99;57.49;103357.81;5084840;27;62248;-79
2022/01/22 07:30:48;;;;;;;;;33.75;26.50;;;;;11.96;57.15;103368.13;5084249;28;61951;-79
2022/01/22 07:33:14;;;;;;;;;28.75;22.50;;;;;11.98;57.41;103367.44;5084297;27;61983;-80
2022/01/22 07:35:40;;;;;;;;;22.50;20.75;;;;;11.98;57.33;103372.72;5082296;28;61895;-78
2022/01/22 07:38:06;;;;;;;;;31.75;23.50;;;;;12.02;57.53;103374.78;5079947;28;61943;-78
2022/01/22 07:40:31;;;;;;;;;32.00;27.25;;;;;12.00;57.16;103376.38;5084610;28;61768;-80
2022/01/22 07:42:57;;;;;;;;;34.50;28.25;;;;;12.04;57.61;103372.28;5084908;27;61971;-81
2022/01/22 07:45:23;;;;;;;;;33.50;25.25;;;;;12.05;57.43;103379.38;5082395;28;61742;-78
2022/01/22 07:47:48;;;;;;;;;27.50;21.25;;;;;12.01;57.08;103377.28;5100123;27;62016;-82
2022/01/22 07:50:14;;;;;;;;;34.25;25.00;;;;;12.00;57.18;103379.00;5084796;28;61722;-77
2022/01/22 07:52:39;;;;;;;;;36.00;23.00;;;;;12.01;57.17;103380.84;5084200;28;62158;-79
2022/01/22 07:55:06;;;;;;;;;27.25;21.25;;;;;11.91;56.88;103373.03;5083184;28;63237;-77
2022/01/22 07:57:32;;;;;;;;;34.50;27.75;;;;;11.92;57.42;103373.94;5083521;28;61995;-81
2022/01/22 07:59:57;;;;;;;;;33.75;27.00;;;;;11.83;57.19;103376.72;5083255;28;61887;-81
2022/01/22 08:02:23;;;;;;;;;29.75;25.00;;;;;11.90;57.10;103378.16;5084123;28;62494;-80
2022/01/22 08:04:48;;;;;;;;;34.50;25.25;;;;;11.90;57.21;103378.16;5071584;28;61877;-81
2022/01/22 08:07:14;;;;;;;;;35.75;27.50;;;;;11.95;57.04;103382.97;5089494;27;62088;-81
2022/01/22 08:09:39;;;;;;;;;34.75;26.00;;;;;12.03;57.45;103388.88;5099920;27;62093;-81
2022/01/22 08:12:05;;;;;;;;;38.25;28.50;;;;;12.07;57.36;103391.84;5084153;27;61815;-82
2022/01/22 08:14:30;;;;;;;;;31.25;24.50;;;;;12.12;57.27;103391.31;5082205;27;61974;-86
2022/01/22 08:16:56;;;;;;;;;23.50;22.75;;;;;12.05;56.76;103388.19;5083679;27;62024;-82
2022/01/22 08:19:23;;;;;;;;;34.00;27.25;;;;;12.06;57.24;103387.41;5083907;27;61788;-82
2022/01/22 08:21:48;;;;;;;;;31.25;26.00;;;;;12.11;57.09;103394.75;5084133;28;62109;-85
2022/01/22 08:24:15;;;;;;;;;36.25;28.50;;;;;12.09;56.73;103399.88;5082754;27;63180;-85
2022/01/22 08:26:53;;;;;;;;;26.50;25.00;;;;;12.05;57.25;103390.81;5083283;27;61756;-86
2022/01/22 08:29:19;;;;;;;;;38.25;33.25;;;;;12.11;56.89;103397.38;5098918;27;62089;-84
2022/01/22 08:32:03;;;;;;;;;38.00;27.50;;;;;12.13;56.86;103403.69;5084086;27;61859;-85
2022/01/22 08:37:12;;;;;;;;;35.50;28.75;;;;;12.11;56.97;103414.09;5076341;28;61960;-85
2022/01/22 08:39:38;;;;;;;;;30.50;25.00;;;;;12.17;57.41;103401.44;5081539;28;62433;-88
2022/01/22 08:42:05;;;;;;;;;38.00;27.75;;;;;12.16;56.75;103407.47;5077963;28;62054;-86
2022/01/22 08:44:33;;;;;;;;;43.25;30.50;;;;;12.14;56.31;103416.06;5071590;28;64841;-80
2022/01/22 08:47:01;;;;;;;;;39.25;31.50;;;;;12.14;56.70;103413.41;5083612;27;61792;-84
2022/01/22 08:49:26;;;;;;;;;29.50;28.25;;;;;12.23;56.73;103423.00;5099971;27;61302;-82
2022/01/22 08:51:53;;;;;;;;;33.00;27.00;;;;;12.27;56.59;103424.13;5083639;27;61779;-82
2022/01/22 08:54:18;;;;;;;;;38.50;29.25;;;;;12.37;56.71;103415.25;5083057;28;61966;-81
2022/01/22 08:56:44;;;;;;;;;37.00;30.75;;;;;12.38;56.19;103423.28;5081224;28;61983;-85
2022/01/22 08:59:11;;;;;;;;;27.25;25.75;;;;;12.42;56.60;103427.06;5081588;27;62451;-85
2022/01/22 09:01:42;;;;;;;;;25.00;21.75;;;;;12.42;55.96;103422.72;5083533;28;61805;-85
2022/01/22 09:04:08;;;;;;;;;30.25;23.75;;;;;12.40;56.21;103431.28;5082683;28;61823;-82
2022/01/22 09:06:34;;;;;;;;;37.75;28.75;;;;;12.47;56.08;103439.81;5083651;28;62007;-82
2022/01/22 09:09:09;;;;;;;;;40.25;30.50;;;;;12.54;56.14;103438.59;5083050;28;61922;-82
2022/01/22 09:11:36;;;;;;;;;31.50;29.00;;;;;12.58;55.97;103430.13;5082954;28;61763;-82
2022/01/22 09:14:03;;;;;;;;;23.75;22.25;;;;;12.62;55.30;103437.47;5082358;28;61929;-81
2022/01/22 09:16:29;;;;;;;;;32.25;27.25;;;;;12.62;55.72;103441.84;5083121;28;61867;-82
2022/01/22 09:18:58;;;;;;;;;41.00;29.75;;;;;12.63;55.53;103444.56;5082838;28;61923;-82
2022/01/22 09:21:23;;;;;;;;;33.00;30.00;;;;;12.69;55.67;103439.78;5083450;28;62021;-82
2022/01/22 09:23:49;;;;;;;;;37.25;31.75;;;;;12.72;55.66;103435.56;5074040;27;63537;-82
2022/01/22 09:26:14;;;;;;;;;30.75;29.50;;;;;12.75;55.11;103436.72;5091950;27;61982;-79
2022/01/22 09:28:40;;;;;;;;;36.00;31.00;;;;;12.77;55.33;103437.75;5076626;27;62338;-78
2022/01/22 09:31:06;;;;;;;;;35.00;29.75;;;;;12.86;55.40;103446.38;5066892;27;62022;-78
2022/01/22 09:33:31;;;;;;;;;29.75;29.75;;;;;12.83;54.82;103453.13;5081674;27;61852;-78
2022/01/22 09:35:57;;;;;;;;;38.75;31.25;;;;;12.87;55.07;103453.50;5076614;27;61906;-78
2022/01/22 09:38:22;;;;;;;;;31.75;24.50;;;;;12.83;54.74;103461.03;5082018;28;61694;-78
2022/01/22 09:40:48;;;;;;;;;29.50;27.75;;;;;12.86;54.82;103453.38;5079789;28;62021;-78
2022/01/22 09:43:13;;;;;;;;;29.00;24.00;;;;;12.86;54.63;103458.66;5081661;27;62804;-78
2022/01/22 09:45:39;;;;;;;;;40.75;26.75;;;;;12.93;54.81;103460.97;5080663;28;61956;-78
2022/01/22 09:48:06;;;;;;;;;43.25;31.50;;;;;13.02;55.06;103459.03;5081883;28;61781;-78
2022/01/22 09:50:33;;;;;;;;;42.25;30.50;;;;;13.04;54.83;103451.25;5098020;27;62095;-78
2022/01/22 09:52:59;;;;;;;;;44.25;35.25;;;;;13.13;55.02;103457.22;5066833;28;61836;-79
2022/01/22 09:55:25;;;;;;;;;36.50;25.50;;;;;13.04;53.91;103459.16;5079491;28;61858;-78
2022/01/22 09:57:53;;;;;;;;;41.75;30.75;;;;;12.97;54.18;103460.41;5076413;28;62040;-78
2022/01/22 10:00:19;;;;;;;;;36.75;28.75;;;;;12.96;54.68;103465.53;5105015;27;62085;-78
2022/01/22 10:02:47;;;;;;;;;36.75;31.00;;;;;13.00;54.61;103465.91;5079881;28;61903;-78
2022/01/22 10:05:32;;;;;;;;;35.50;29.25;;;;;12.98;54.86;103467.53;5073724;28;61914;-78
2022/01/22 10:08:31;;;;;;;;;28.50;25.25;;;;;13.08;55.01;103464.78;5063754;28;62070;-78
2022/01/22 10:10:58;;;;;;;;;30.25;28.75;;;;;13.17;54.97;103469.84;5080879;28;61935;-78
2022/01/22 10:13:41;;;;;;;;;30.00;25.75;;;;;13.24;54.68;103460.72;5081047;28;61920;-78
2022/01/22 10:16:24;;;;;;;;;30.25;27.50;;;;;13.24;54.23;103466.91;5081849;28;61897;-78
2022/01/22 10:19:19;;;;;;;;;31.75;26.25;;;;;13.23;54.00;103467.69;5067990;28;61823;-78
2022/01/22 10:21:57;;;;;;;;;38.50;31.75;;;;;13.09;54.08;103465.72;5075657;28;61806;-78
2022/01/22 10:24:33;;;;;;;;;31.25;27.75;;;;;13.14;54.57;103466.97;5080090;28;61799;-78
2022/01/22 10:27:23;;;;;;;;;41.00;28.50;;;;;13.13;54.23;103473.03;5077258;28;62000;-79
2022/01/22 10:29:52;;;;;;;;;41.75;31.50;;;;;13.22;54.67;103476.41;5063154;27;61791;-80
2022/01/22 10:32:22;;;;;;;;;33.50;29.50;;;;;13.17;54.10;103476.84;5064909;28;62221;-78
2022/01/22 10:34:48;;;;;;;;;41.25;31.75;;;;;13.28;54.42;103476.91;5083869;27;63697;-80
2022/01/22 10:37:27;;;;;;;;;43.75;35.50;;;;;13.40;54.39;103471.63;5065230;27;61859;-79
2022/01/22 10:40:12;;;;;;;;;27.00;23.50;;;;;13.45;54.07;103471.97;5093347;27;61941;-79
2022/01/22 10:42:37;;;;;;;;;38.75;33.25;;;;;13.55;53.49;103465.69;5074350;28;61756;-76
2022/01/22 10:45:09;;;;;;;;;45.25;33.75;;;;;13.64;53.17;103469.94;5077298;28;62629;-78
2022/01/22 10:47:34;;;;;;;;;40.00;33.00;;;;;13.67;53.09;103466.63;5078676;28;61929;-79
2022/01/22 10:50:20;;;;;;;;;36.00;24.00;;;;;13.66;53.54;103467.41;5081746;27;61846;-76
2022/01/22 10:52:53;;;;;;;;;31.75;27.75;;;;;13.78;54.13;103468.34;5076266;28;61858;-77
2022/01/22 10:55:19;;;;;;;;;38.75;28.25;;;;;13.82;53.03;103459.84;5070773;27;62941;-80
2022/01/22 10:58:09;;;;;;;;;33.75;28.75;;;;;13.78;52.77;103451.59;5069619;28;61936;-80
2022/01/22 11:00:36;;;;;;;;;34.00;27.25;;;;;13.77;52.69;103460.28;5072767;28;61938;-79
2022/01/22 11:03:22;;;;;;;;;54.00;39.75;;;;;13.80;53.34;103471.09;5067045;27;61923;-79
2022/01/22 11:05:47;;;;;;;;;39.25;27.00;;;;;13.76;52.49;103461.13;5100395;27;62145;-78
2022/01/22 11:08:14;;;;;;;;;34.75;26.50;;;;;13.76;52.65;103453.19;5071592;27;63169;-78
2022/01/22 11:10:46;;;;;;;;;34.00;27.50;;;;;13.83;52.57;103448.47;5080007;28;61864;-81
2022/01/22 11:13:12;;;;;;;;;34.75;31.25;;;;;13.85;51.59;103457.41;5074628;28;61787;-80
2022/01/22 11:15:43;;;;;;;;;40.00;30.25;;;;;13.78;51.81;103454.22;5074197;27;61990;-79
2022/01/22 11:18:11;;;;;;;;;6.75;2.75;;;;;13.75;52.66;103454.88;5077286;28;61886;-77
2022/01/22 11:20:38;;;;;;;;;30.50;18.50;;;;;13.75;52.05;103446.97;5068302;28;62083;-77
2022/01/22 11:23:04;;;;;;;;;25.25;22.50;;;;;13.78;52.30;103444.56;5092159;27;61865;-76
2022/01/22 11:25:33;;;;;;;;;44.00;36.75;;;;;13.88;52.94;103441.81;5073446;28;61990;-82
2022/01/22 11:28:00;;;;;;;;;25.50;20.75;;;;;13.96;52.28;103445.00;5080712;28;61738;-81
2022/01/22 11:30:28;;;;;;;;;47.50;39.25;;;;;14.08;51.95;103445.00;5076750;28;62076;-81
2022/01/22 11:33:05;;;;;;;;;43.00;33.75;;;;;14.17;51.76;103437.72;5080378;28;61929;-82
2022/01/22 11:36:00;;;;;;;;;21.00;16.50;;;;;14.21;52.57;103425.66;5079919;28;65161;-82
2022/01/22 11:38:30;;;;;;;;;26.00;20.00;;;;;14.29;52.21;103435.97;5067038;28;61931;-82
2022/01/22 11:41:10;;;;;;;;;27.75;22.00;;;;;14.27;51.10;103428.75;5096235;27;62006;-83
2022/01/22 11:46:39;;;;;;;;;42.25;28.00;;;;;14.36;51.71;103437.34;5074262;28;62582;-83
2022/01/22 11:49:15;;;;;;;;;34.50;29.50;;;;;14.41;51.78;103428.00;5063962;28;61888;-82
2022/01/22 11:51:49;;;;;;;;;36.50;29.50;;;;;14.48;52.33;103425.00;5074078;28;61666;-83
2022/01/22 11:54:17;;;;;;;;;35.00;23.50;;;;;14.40;50.72;103420.91;5104880;27;62321;-83
2022/01/22 11:56:44;;;;;;;;;27.25;23.25;;;;;14.39;51.44;103429.59;5074679;28;62011;-75
2022/01/22 11:59:22;;;;;;;;;25.00;22.50;;;;;14.29;50.87;103429.78;5078408;27;61894;-82
2022/01/22 12:01:56;;;;;;;;;27.00;23.50;;;;;14.24;51.62;103424.16;5080622;28;61853;-83
2022/01/22 12:04:45;;;;;;;;;31.25;21.50;;;;;14.21;50.90;103423.03;5079028;28;62098;-77
2022/01/22 12:07:14;;;;;;;;;23.50;22.25;;;;;14.25;51.60;103419.81;5087339;27;62612;-82
2022/01/22 12:15:05;;;;;;;;;25.25;19.50;;;;;14.20;51.55;103395.66;5083977;28;61932;-81
2022/01/22 12:18:06;;;;;;;;;42.50;26.25;;;;;14.39;51.63;103411.13;5083168;27;61821;-77
2022/01/22 12:21:30;;;;;;;;;32.25;26.00;;;;;14.47;51.57;103417.88;5040289;28;61977;-84
2022/01/22 12:23:42;;;;;;;;;35.75;33.00;;;;;14.60;51.54;103409.09;5040052;28;62231;-88
2022/01/22 12:26:07;;;;;;;;;33.75;31.00;;;;;14.63;51.22;103395.19;5040354;28;61984;-84
2022/01/22 12:28:42;;;;;;;;;35.25;30.25;;;;;14.66;50.54;103396.31;5039548;28;61903;-80
2022/01/22 12:31:10;;;;;;;;;26.00;23.50;;;;;14.60;50.49;103397.63;5036815;28;62028;-84
2022/01/22 12:33:38;;;;;;;;;26.00;24.75;;;;;14.54;50.56;103403.34;5037294;28;62045;-82
2022/01/22 12:36:21;;;;;;;;;33.25;26.50;;;;;14.43;51.18;103401.69;5034612;28;62057;-81
2022/01/22 12:39:05;;;;;;;;;38.25;30.75;;;;;14.29;50.67;103391.06;5034979;28;63818;-78
2022/01/22 12:41:36;;;;;;;;;33.25;23.50;;;;;14.27;51.66;103392.69;5033986;28;62038;-83
2022/01/22 12:44:36;;;;;;;;;33.75;24.00;;;;;14.46;51.73;103394.91;5037973;28;61968;-83
2022/01/22 12:47:06;;;;;;;;;25.25;21.25;;;;;14.49;50.82;103384.53;4959019;28;62395;-81
2022/01/22 12:49:33;;;;;;;;;28.00;19.75;;;;;14.51;50.42;103379.38;4979055;28;62549;-82
2022/01/22 12:52:05;;;;;;;;;45.50;38.25;;;;;14.59;51.62;103380.84;4996495;28;61945;-82